Terminal Aerodrome Forecast
Issued by NWS

Home | Current Version | Previous Version | Text Only | Print | Product List | Glossary On
Versions: 1 2 3 4 5 6 7 8 9 10 11 12 13 14 15 16 17 18 19 20 21 22 23
000
FTUS43 KAPX 240520
TAFAPN
TAF
KAPN 240520Z 2406/2506 11008KT 3SM RA BR OVC004 WS014/16035KT
     FM241000 18009KT 4SM -RA BR OVC006
     FM241400 22008KT 6SM -RA BR OVC014
     FM242100 25007KT 6SM -RA BR OVC016
     FM250200 25007KT 2SM -SN OVC016=

USA.gov is the U.S. government's official web portal to all federal, state and local government web resources and services.